sensor_id;sensor_type;location;lat;lon;timestamp;pressure;altitude;pressure_sealevel;temperature;humidity
65553;BME280;52465;51.560;14.368;2023-07-20T00:01:13;99785.13;;;24.62;52.63
65553;BME280;52465;51.560;14.368;2023-07-20T00:05:37;99770.88;;;24.51;52.33
65553;BME280;52465;51.560;14.368;2023-07-20T00:09:28;99789.41;;;24.63;52.75
65553;BME280;52465;51.560;14.368;2023-07-20T00:11:54;99805.72;;;24.62;52.87
65553;BME280;52465;51.560;14.368;2023-07-20T00:32:10;99805.47;;;24.58;52.41
65553;BME280;52465;51.560;14.368;2023-07-20T00:34:35;99800.34;;;24.57;52.81
65553;BME280;52465;51.560;14.368;2023-07-20T00:43:53;99768.72;;;24.43;52.75
65553;BME280;52465;51.560;14.368;2023-07-20T00:46:18;99782.16;;;24.53;52.66
65553;BME280;52465;51.560;14.368;2023-07-20T00:48:46;99770.34;;;24.49;52.61
65553;BME280;52465;51.560;14.368;2023-07-20T00:59:27;99778.03;;;24.41;52.59
65553;BME280;52465;51.560;14.368;2023-07-20T01:03:54;99777.28;;;24.45;52.89
65553;BME280;52465;51.560;14.368;2023-07-20T01:08:11;99754.94;;;24.29;52.86
65553;BME280;52465;51.560;14.368;2023-07-20T01:12:07;99791.75;;;24.49;52.58
65553;BME280;52465;51.560;14.368;2023-07-20T01:14:34;99756.84;;;24.34;52.85
65553;BME280;52465;51.560;14.368;2023-07-20T01:16:59;99773.00;;;24.44;52.78
65553;BME280;52465;51.560;14.368;2023-07-20T01:19:25;99769.25;;;24.45;53.06
65553;BME280;52465;51.560;14.368;2023-07-20T01:37:51;99749.94;;;24.38;52.76
65553;BME280;52465;51.560;14.368;2023-07-20T01:40:17;99769.78;;;24.42;53.00
65553;BME280;52465;51.560;14.368;2023-07-20T01:42:44;99762.25;;;24.39;53.11
65553;BME280;52465;51.560;14.368;2023-07-20T01:45:10;99771.91;;;24.40;52.96
65553;BME280;52465;51.560;14.368;2023-07-20T01:54:08;99775.38;;;24.41;53.02
65553;BME280;52465;51.560;14.368;2023-07-20T02:03:14;99784.47;;;24.40;53.03
65553;BME280;52465;51.560;14.368;2023-07-20T02:05:42;99777.78;;;24.37;52.89
65553;BME280;52465;51.560;14.368;2023-07-20T02:08:07;99789.50;;;24.31;53.43
65553;BME280;52465;51.560;14.368;2023-07-20T02:14:42;99789.56;;;24.36;53.16
65553;BME280;52465;51.560;14.368;2023-07-20T02:20:35;99780.13;;;24.34;52.93
65553;BME280;52465;51.560;14.368;2023-07-20T02:26:20;99793.25;;;24.35;53.12
65553;BME280;52465;51.560;14.368;2023-07-20T02:28:45;99793.44;;;24.23;53.03
65553;BME280;52465;51.560;14.368;2023-07-20T02:41:04;99792.41;;;24.29;53.16
65553;BME280;52465;51.560;14.368;2023-07-20T02:43:30;99785.44;;;24.28;53.43
65553;BME280;52465;51.560;14.368;2023-07-20T02:45:55;99792.13;;;24.26;53.17
65553;BME280;52465;51.560;14.368;2023-07-20T02:52:08;99798.28;;;24.26;53.26
65553;BME280;52465;51.560;14.368;2023-07-20T02:58:41;99799.84;;;24.22;53.28
65553;BME280;52465;51.560;14.368;2023-07-20T03:01:07;99728.09;;;23.72;53.12
65553;BME280;52465;51.560;14.368;2023-07-20T03:08:26;99814.56;;;24.20;53.30
65553;BME280;52465;51.560;14.368;2023-07-20T03:18:28;99828.72;;;24.20;53.03
65553;BME280;52465;51.560;14.368;2023-07-20T03:25:56;99808.06;;;24.11;53.23
65553;BME280;52465;51.560;14.368;2023-07-20T03:41:32;99828.69;;;24.15;53.40
65553;BME280;52465;51.560;14.368;2023-07-20T03:43:58;99825.69;;;24.07;53.37
65553;BME280;52465;51.560;14.368;2023-07-20T03:51:11;99844.19;;;24.13;53.29
65553;BME280;52465;51.560;14.368;2023-07-20T03:53:36;99845.25;;;24.12;53.72
65553;BME280;52465;51.560;14.368;2023-07-20T03:59:45;99816.75;;;23.96;53.51
65553;BME280;52465;51.560;14.368;2023-07-20T04:08:23;99852.47;;;24.12;53.79
65553;BME280;52465;51.560;14.368;2023-07-20T04:16:15;99859.94;;;24.10;53.78
65553;BME280;52465;51.560;14.368;2023-07-20T04:18:40;99858.34;;;24.09;53.74
65553;BME280;52465;51.560;14.368;2023-07-20T04:21:07;99850.53;;;24.07;53.66
65553;BME280;52465;51.560;14.368;2023-07-20T04:26:52;99845.47;;;24.06;53.72
65553;BME280;52465;51.560;14.368;2023-07-20T04:29:17;99857.75;;;24.07;53.72
65553;BME280;52465;51.560;14.368;2023-07-20T04:33:47;99851.88;;;24.05;53.68
65553;BME280;52465;51.560;14.368;2023-07-20T04:38:38;99855.91;;;24.07;53.92
65553;BME280;52465;51.560;14.368;2023-07-20T04:42:33;99866.84;;;24.06;53.83
65553;BME280;52465;51.560;14.368;2023-07-20T04:51:29;99859.63;;;24.06;53.86
65553;BME280;52465;51.560;14.368;2023-07-20T05:06:08;99862.78;;;23.98;53.82
65553;BME280;52465;51.560;14.368;2023-07-20T05:15:00;99857.97;;;24.00;53.53
65553;BME280;52465;51.560;14.368;2023-07-20T05:17:25;99865.75;;;24.01;53.93
65553;BME280;52465;51.560;14.368;2023-07-20T05:23:28;99854.19;;;23.91;53.93
65553;BME280;52465;51.560;14.368;2023-07-20T05:30:05;99845.53;;;23.84;54.01
65553;BME280;52465;51.560;14.368;2023-07-20T05:36:25;99867.06;;;23.99;53.99
65553;BME280;52465;51.560;14.368;2023-07-20T05:38:50;99871.63;;;23.98;53.97
65553;BME280;52465;51.560;14.368;2023-07-20T05:41:15;99853.59;;;23.89;54.19
65553;BME280;52465;51.560;14.368;2023-07-20T05:45:26;99851.78;;;23.94;54.04
65553;BME280;52465;51.560;14.368;2023-07-20T05:54:56;99875.09;;;23.99;53.84
65553;BME280;52465;51.560;14.368;2023-07-20T05:57:22;99871.03;;;23.91;53.95
65553;BME280;52465;51.560;14.368;2023-07-20T06:08:01;99875.34;;;23.97;53.76
65553;BME280;52465;51.560;14.368;2023-07-20T06:15:27;99877.22;;;23.97;53.65
65553;BME280;52465;51.560;14.368;2023-07-20T06:19:49;99884.19;;;23.98;53.86
65553;BME280;52465;51.560;14.368;2023-07-20T06:26:20;99879.91;;;23.97;53.77
65553;BME280;52465;51.560;14.368;2023-07-20T06:30:43;99891.41;;;23.97;53.93
65553;BME280;52465;51.560;14.368;2023-07-20T06:42:22;99875.75;;;23.84;53.71
65553;BME280;52465;51.560;14.368;2023-07-20T06:44:47;99891.41;;;23.97;54.08
65553;BME280;52465;51.560;14.368;2023-07-20T06:47:12;99896.97;;;23.96;54.12
65553;BME280;52465;51.560;14.368;2023-07-20T06:49:38;99890.81;;;23.95;53.88
65553;BME280;52465;51.560;14.368;2023-07-20T06:54:10;99845.66;;;23.67;53.91
65553;BME280;52465;51.560;14.368;2023-07-20T06:56:36;99883.38;;;23.97;53.77
65553;BME280;52465;51.560;14.368;2023-07-20T07:02:19;99886.50;;;23.89;53.84
65553;BME280;52465;51.560;14.368;2023-07-20T07:04:45;99894.81;;;23.93;54.19
65553;BME280;52465;51.560;14.368;2023-07-20T07:13:00;99896.75;;;23.97;53.68
65553;BME280;52465;51.560;14.368;2023-07-20T07:15:26;99900.22;;;23.98;53.76
65553;BME280;52465;51.560;14.368;2023-07-20T07:19:31;99866.38;;;23.82;53.59
65553;BME280;52465;51.560;14.368;2023-07-20T07:21:57;99900.78;;;24.00;53.62
65553;BME280;52465;51.560;14.368;2023-07-20T07:26:04;99900.50;;;24.01;53.82
65553;BME280;52465;51.560;14.368;2023-07-20T07:38:01;99906.44;;;24.04;53.20
65553;BME280;52465;51.560;14.368;2023-07-20T07:42:16;99910.97;;;24.03;53.28
65553;BME280;52465;51.560;14.368;2023-07-20T07:46:04;99894.03;;;23.92;53.69
65553;BME280;52465;51.560;14.368;2023-07-20T07:51:54;99901.84;;;23.99;53.37
65553;BME280;52465;51.560;14.368;2023-07-20T07:54:20;99909.59;;;24.00;53.40
65553;BME280;52465;51.560;14.368;2023-07-20T07:56:45;99922.97;;;24.00;53.60
65553;BME280;52465;51.560;14.368;2023-07-20T07:59:10;99922.97;;;24.00;53.51
65553;BME280;52465;51.560;14.368;2023-07-20T08:01:36;99913.84;;;23.96;53.37
65553;BME280;52465;51.560;14.368;2023-07-20T08:05:25;99922.97;;;24.00;53.23
65553;BME280;52465;51.560;14.368;2023-07-20T08:11:35;99918.19;;;24.02;53.74
65553;BME280;52465;51.560;14.368;2023-07-20T08:14:01;99922.16;;;24.00;53.35
65553;BME280;52465;51.560;14.368;2023-07-20T08:16:26;99925.41;;;24.02;53.50
65553;BME280;52465;51.560;14.368;2023-07-20T08:18:52;99913.53;;;23.93;53.25
65553;BME280;52465;51.560;14.368;2023-07-20T08:33:04;99932.38;;;24.03;53.35
65553;BME280;52465;51.560;14.368;2023-07-20T08:45:22;99924.63;;;24.07;53.21
65553;BME280;52465;51.560;14.368;2023-07-20T08:49:49;99925.69;;;24.06;52.95
65553;BME280;52465;51.560;14.368;2023-07-20T08:52:15;99946.88;;;24.12;52.99
65553;BME280;52465;51.560;14.368;2023-07-20T08:56:41;99944.97;;;24.08;52.70
65553;BME280;52465;51.560;14.368;2023-07-20T09:03:16;99943.97;;;24.14;53.00
65553;BME280;52465;51.560;14.368;2023-07-20T09:05:41;99877.44;;;23.63;53.28
65553;BME280;52465;51.560;14.368;2023-07-20T09:09:59;99947.13;;;24.11;52.95
65553;BME280;52465;51.560;14.368;2023-07-20T09:14:14;99952.47;;;24.11;53.14
65553;BME280;52465;51.560;14.368;2023-07-20T09:16:49;99950.06;;;24.09;52.77
65553;BME280;52465;51.560;14.368;2023-07-20T09:19:25;99949.81;;;24.11;52.76
65553;BME280;52465;51.560;14.368;2023-07-20T09:23:37;99925.09;;;23.98;52.98
65553;BME280;52465;51.560;14.368;2023-07-20T09:26:10;99940.66;;;24.07;53.00
65553;BME280;52465;51.560;14.368;2023-07-20T09:28:41;99885.66;;;23.62;53.40
65553;BME280;52465;51.560;14.368;2023-07-20T09:31:15;99955.97;;;24.11;52.86
65553;BME280;52465;51.560;14.368;2023-07-20T09:33:41;99944.19;;;24.12;53.06
65553;BME280;52465;51.560;14.368;2023-07-20T09:36:08;99944.16;;;24.07;53.21
65553;BME280;52465;51.560;14.368;2023-07-20T09:38:34;99942.91;;;24.15;52.97
65553;BME280;52465;51.560;14.368;2023-07-20T09:41:01;99956.81;;;24.17;53.01
65553;BME280;52465;51.560;14.368;2023-07-20T09:43:28;99938.84;;;24.12;52.58
65553;BME280;52465;51.560;14.368;2023-07-20T09:45:57;99942.94;;;24.20;52.96
65553;BME280;52465;51.560;14.368;2023-07-20T09:48:25;99943.50;;;24.22;52.94
65553;BME280;52465;51.560;14.368;2023-07-20T09:50:51;99955.56;;;24.24;52.78
65553;BME280;52465;51.560;14.368;2023-07-20T09:53:18;99947.28;;;24.26;52.54
65553;BME280;52465;51.560;14.368;2023-07-20T09:55:44;99944.59;;;24.26;52.73
65553;BME280;52465;51.560;14.368;2023-07-20T09:58:10;99946.22;;;24.27;52.45
65553;BME280;52465;51.560;14.368;2023-07-20T10:02:33;99948.13;;;24.32;52.44
65553;BME280;52465;51.560;14.368;2023-07-20T10:05:01;99939.31;;;24.31;52.28
65553;BME280;52465;51.560;14.368;2023-07-20T10:09:02;99943.59;;;24.32;52.48
65553;BME280;52465;51.560;14.368;2023-07-20T10:14:49;99938.56;;;24.36;52.02
65553;BME280;52465;51.560;14.368;2023-07-20T10:17:23;99948.44;;;24.35;51.99
65553;BME280;52465;51.560;14.368;2023-07-20T10:30:30;99931.34;;;24.36;51.72
65553;BME280;52465;51.560;14.368;2023-07-20T10:32:56;99936.75;;;24.41;51.73
65553;BME280;52465;51.560;14.368;2023-07-20T10:35:21;99924.94;;;24.37;51.67
65553;BME280;52465;51.560;14.368;2023-07-20T10:37:52;99934.63;;;24.43;51.75
65553;BME280;52465;51.560;14.368;2023-07-20T10:42:06;99933.03;;;24.47;51.32
65553;BME280;52465;51.560;14.368;2023-07-20T10:49:01;99925.06;;;24.52;51.04
65553;BME280;52465;51.560;14.368;2023-07-20T10:51:29;99922.13;;;24.54;51.40
65553;BME280;52465;51.560;14.368;2023-07-20T10:53:55;99925.34;;;24.56;51.28
65553;BME280;52465;51.560;14.368;2023-07-20T10:56:22;99918.88;;;24.52;51.08
65553;BME280;52465;51.560;14.368;2023-07-20T11:01:01;99915.44;;;24.57;50.99
65553;BME280;52465;51.560;14.368;2023-07-20T11:03:28;99924.31;;;24.62;50.87
65553;BME280;52465;51.560;14.368;2023-07-20T11:05:53;99911.44;;;24.59;51.07
65553;BME280;52465;51.560;14.368;2023-07-20T11:14:41;99925.16;;;24.68;51.05
65553;BME280;52465;51.560;14.368;2023-07-20T11:17:11;99905.03;;;24.60;50.70
65553;BME280;52465;51.560;14.368;2023-07-20T11:19:37;99924.06;;;24.69;50.87
65553;BME280;52465;51.560;14.368;2023-07-20T11:22:05;99915.25;;;24.68;50.78
65553;BME280;52465;51.560;14.368;2023-07-20T11:27:58;99911.25;;;24.71;50.66
65553;BME280;52465;51.560;14.368;2023-07-20T11:32:30;99917.97;;;24.73;50.40
65553;BME280;52465;51.560;14.368;2023-07-20T11:36:50;99914.78;;;24.76;50.77
65553;BME280;52465;51.560;14.368;2023-07-20T11:40:58;99911.84;;;24.78;50.83
65553;BME280;52465;51.560;14.368;2023-07-20T11:45:05;99882.84;;;24.65;50.85
65553;BME280;52465;51.560;14.368;2023-07-20T11:49:22;99913.19;;;24.86;50.49
65553;BME280;52465;51.560;14.368;2023-07-20T11:55:57;99908.91;;;24.85;50.25
65553;BME280;52465;51.560;14.368;2023-07-20T11:58:23;99910.78;;;24.84;50.45
65553;BME280;52465;51.560;14.368;2023-07-20T12:07:54;99887.47;;;24.79;50.35
65553;BME280;52465;51.560;14.368;2023-07-20T12:12:18;99891.75;;;24.75;50.57
65553;BME280;52465;51.560;14.368;2023-07-20T12:14:44;99895.25;;;24.81;50.58
65553;BME280;52465;51.560;14.368;2023-07-20T12:17:09;99893.91;;;24.78;50.79
65553;BME280;52465;51.560;14.368;2023-07-20T12:19:38;99901.94;;;24.78;50.71
65553;BME280;52465;51.560;14.368;2023-07-20T12:23:49;99889.03;;;24.70;50.61
65553;BME280;52465;51.560;14.368;2023-07-20T12:26:14;99896.84;;;24.77;50.42
65553;BME280;52465;51.560;14.368;2023-07-20T12:32:30;99894.47;;;24.80;50.48
65553;BME280;52465;51.560;14.368;2023-07-20T12:37:08;99874.31;;;24.73;50.54
65553;BME280;52465;51.560;14.368;2023-07-20T12:39:34;99878.94;;;24.83;50.25
65553;BME280;52465;51.560;14.368;2023-07-20T12:41:59;99884.03;;;24.84;50.42
65553;BME280;52465;51.560;14.368;2023-07-20T12:48:13;99891.00;;;24.90;50.50
65553;BME280;52465;51.560;14.368;2023-07-20T12:50:38;99878.97;;;24.88;50.19
65553;BME280;52465;51.560;14.368;2023-07-20T12:53:04;99889.63;;;24.83;50.40
65553;BME280;52465;51.560;14.368;2023-07-20T12:58:39;99899.84;;;24.91;50.22
65553;BME280;52465;51.560;14.368;2023-07-20T13:01:05;99896.38;;;24.90;50.28
65553;BME280;52465;51.560;14.368;2023-07-20T13:09:02;99899.84;;;24.91;49.95
65553;BME280;52465;51.560;14.368;2023-07-20T13:11:27;99896.38;;;24.90;50.08
65553;BME280;52465;51.560;14.368;2023-07-20T13:13:53;99893.16;;;24.88;50.09
65553;BME280;52465;51.560;14.368;2023-07-20T13:20:16;99909.53;;;24.92;50.09
65553;BME280;52465;51.560;14.368;2023-07-20T13:22:41;99900.66;;;24.91;49.97
65553;BME280;52465;51.560;14.368;2023-07-20T13:25:07;99896.38;;;24.90;50.30
65553;BME280;52465;51.560;14.368;2023-07-20T13:27:33;99907.06;;;24.90;49.91
65553;BME280;52465;51.560;14.368;2023-07-20T13:29:59;99897.16;;;24.91;49.94
65553;BME280;52465;51.560;14.368;2023-07-20T13:32:24;99911.38;;;24.91;50.24
65553;BME280;52465;51.560;14.368;2023-07-20T13:34:50;99898.81;;;24.92;50.11
65553;BME280;52465;51.560;14.368;2023-07-20T13:37:16;99906.00;;;24.91;50.36
65553;BME280;52465;51.560;14.368;2023-07-20T13:39:41;99856.31;;;24.63;50.31
65553;BME280;52465;51.560;14.368;2023-07-20T13:42:07;99913.00;;;24.92;50.16
65553;BME280;52465;51.560;14.368;2023-07-20T13:44:33;99920.75;;;24.94;50.16
65553;BME280;52465;51.560;14.368;2023-07-20T13:46:59;99920.75;;;24.94;50.00
65553;BME280;52465;51.560;14.368;2023-07-20T13:49:24;99879.38;;;24.64;49.93
65553;BME280;52465;51.560;14.368;2023-07-20T13:51:50;99902.28;;;24.92;50.03
65553;BME280;52465;51.560;14.368;2023-07-20T13:57:11;99911.41;;;24.96;49.98
65553;BME280;52465;51.560;14.368;2023-07-20T14:01:47;99913.84;;;24.98;50.38
65553;BME280;52465;51.560;14.368;2023-07-20T14:04:12;99914.06;;;24.96;50.08
65553;BME280;52465;51.560;14.368;2023-07-20T14:12:24;99915.44;;;24.99;49.97
65553;BME280;52465;51.560;14.368;2023-07-20T14:18:53;99901.22;;;24.93;49.95
65553;BME280;52465;51.560;14.368;2023-07-20T14:30:39;99906.03;;;24.96;49.96
65553;BME280;52465;51.560;14.368;2023-07-20T14:34:56;99923.75;;;24.97;50.05
65553;BME280;52465;51.560;14.368;2023-07-20T14:45:52;99907.59;;;24.82;50.17
65553;BME280;52465;51.560;14.368;2023-07-20T14:50:14;99920.50;;;24.95;50.04
65553;BME280;52465;51.560;14.368;2023-07-20T14:54:46;99913.25;;;24.91;50.20
65553;BME280;52465;51.560;14.368;2023-07-20T14:57:12;99921.84;;;24.93;50.17
65553;BME280;52465;51.560;14.368;2023-07-20T15:01:16;99907.38;;;24.94;50.18
65553;BME280;52465;51.560;14.368;2023-07-20T15:07:05;99902.00;;;24.89;50.29
65553;BME280;52465;51.560;14.368;2023-07-20T15:16:11;99930.13;;;24.96;50.05
65553;BME280;52465;51.560;14.368;2023-07-20T15:23:16;99911.66;;;24.95;50.32
65553;BME280;52465;51.560;14.368;2023-07-20T15:29:30;99914.34;;;24.95;50.13
65553;BME280;52465;51.560;14.368;2023-07-20T15:34:03;99902.53;;;24.91;50.04
65553;BME280;52465;51.560;14.368;2023-07-20T15:36:28;99919.44;;;24.96;50.16
65553;BME280;52465;51.560;14.368;2023-07-20T15:38:53;99923.19;;;24.95;50.26
65553;BME280;52465;51.560;14.368;2023-07-20T15:41:19;99923.19;;;24.95;50.24
65553;BME280;52465;51.560;14.368;2023-07-20T15:43:44;99906.03;;;24.96;50.25
65553;BME280;52465;51.560;14.368;2023-07-20T15:56:18;99906.63;;;25.03;50.02
65553;BME280;52465;51.560;14.368;2023-07-20T15:58:43;99906.06;;;25.01;50.21
65553;BME280;52465;51.560;14.368;2023-07-20T16:11:51;99903.94;;;25.03;50.19
65553;BME280;52465;51.560;14.368;2023-07-20T16:14:16;99896.41;;;24.95;50.22
65553;BME280;52465;51.560;14.368;2023-07-20T16:16:44;99911.97;;;24.98;50.22
65553;BME280;52465;51.560;14.368;2023-07-20T16:20:55;99895.84;;;24.93;50.15
65553;BME280;52465;51.560;14.368;2023-07-20T16:24:45;99905.00;;;24.97;50.34
65553;BME280;52465;51.560;14.368;2023-07-20T16:27:10;99902.81;;;24.94;50.46
65553;BME280;52465;51.560;14.368;2023-07-20T16:29:36;99905.22;;;24.96;50.41
65553;BME280;52465;51.560;14.368;2023-07-20T16:32:01;99923.19;;;24.95;50.42
65553;BME280;52465;51.560;14.368;2023-07-20T16:39:23;99923.72;;;24.92;50.50
65553;BME280;52465;51.560;14.368;2023-07-20T16:57:57;99932.78;;;24.91;50.51
65553;BME280;52465;51.560;14.368;2023-07-20T17:00:22;99933.06;;;24.90;50.62
65553;BME280;52465;51.560;14.368;2023-07-20T17:06:04;99926.91;;;24.89;50.68
65553;BME280;52465;51.560;14.368;2023-07-20T17:10:11;99919.13;;;24.88;50.70
65553;BME280;52465;51.560;14.368;2023-07-20T17:12:38;99922.59;;;24.88;50.88
65553;BME280;52465;51.560;14.368;2023-07-20T17:18:53;99914.56;;;24.88;50.79
65553;BME280;52465;51.560;14.368;2023-07-20T17:21:20;99913.50;;;24.89;50.71
65553;BME280;52465;51.560;14.368;2023-07-20T17:28:43;99911.38;;;24.91;50.80
65553;BME280;52465;51.560;14.368;2023-07-20T17:31:09;99900.88;;;24.85;50.79
65553;BME280;52465;51.560;14.368;2023-07-20T17:35:31;99910.31;;;24.92;50.79
65553;BME280;52465;51.560;14.368;2023-07-20T17:37:56;99893.63;;;24.80;50.94
65553;BME280;52465;51.560;14.368;2023-07-20T17:40:22;99911.38;;;24.91;50.97
65553;BME280;52465;51.560;14.368;2023-07-20T17:51:05;99823.88;;;24.49;50.68
65553;BME280;52465;51.560;14.368;2023-07-20T17:53:31;99889.41;;;24.89;50.68
65553;BME280;52465;51.560;14.368;2023-07-20T17:59:33;99899.63;;;24.97;50.54
65553;BME280;52465;51.560;14.368;2023-07-20T18:05:45;99897.75;;;24.98;50.65
65553;BME280;52465;51.560;14.368;2023-07-20T18:13:12;99885.91;;;24.89;50.52
65553;BME280;52465;51.560;14.368;2023-07-20T18:15:38;99902.56;;;24.96;50.58
65553;BME280;52465;51.560;14.368;2023-07-20T18:19:53;99908.47;;;24.98;50.52
65553;BME280;52465;51.560;14.368;2023-07-20T18:25:54;99905.78;;;24.98;50.72
65553;BME280;52465;51.560;14.368;2023-07-20T18:33:41;99905.78;;;24.98;50.76
65553;BME280;52465;51.560;14.368;2023-07-20T18:45:56;99899.34;;;24.94;50.94
65553;BME280;52465;51.560;14.368;2023-07-20T18:51:51;99917.56;;;24.92;50.76
65553;BME280;52465;51.560;14.368;2023-07-20T18:59:02;99894.16;;;24.77;51.09
65553;BME280;52465;51.560;14.368;2023-07-20T19:16:53;99933.81;;;24.85;51.03
65553;BME280;52465;51.560;14.368;2023-07-20T19:47:06;99955.69;;;24.72;51.39
65553;BME280;52465;51.560;14.368;2023-07-20T20:00:03;99960.25;;;24.71;51.39
65553;BME280;52465;51.560;14.368;2023-07-20T20:04:18;99965.88;;;24.70;51.16
65553;BME280;52465;51.560;14.368;2023-07-20T20:11:43;99956.94;;;24.59;51.61
65553;BME280;52465;51.560;14.368;2023-07-20T20:18:32;99975.91;;;24.58;52.18
65553;BME280;52465;51.560;14.368;2023-07-20T20:36:51;99958.78;;;24.53;51.88
65553;BME280;52465;51.560;14.368;2023-07-20T20:39:17;99958.78;;;24.53;51.93
65553;BME280;52465;51.560;14.368;2023-07-20T20:41:42;99961.47;;;24.53;52.23
65553;BME280;52465;51.560;14.368;2023-07-20T20:49:01;99974.88;;;24.59;52.11
65553;BME280;52465;51.560;14.368;2023-07-20T20:56:53;99943.53;;;24.27;52.24
65553;BME280;52465;51.560;14.368;2023-07-20T21:02:22;99972.66;;;24.50;52.34
65553;BME280;52465;51.560;14.368;2023-07-20T21:09:11;99947.63;;;24.35;52.12
65553;BME280;52465;51.560;14.368;2023-07-20T21:11:37;99993.81;;;24.52;52.58
65553;BME280;52465;51.560;14.368;2023-07-20T21:14:02;99985.50;;;24.48;52.44
65553;BME280;52465;51.560;14.368;2023-07-20T21:27:49;99956.56;;;24.18;52.55
65553;BME280;52465;51.560;14.368;2023-07-20T21:30:15;99991.94;;;24.47;52.38
65553;BME280;52465;51.560;14.368;2023-07-20T21:32:40;100000.44;;;24.44;52.37
65553;BME280;52465;51.560;14.368;2023-07-20T21:36:50;100003.13;;;24.44;52.56
65553;BME280;52465;51.560;14.368;2023-07-20T21:39:15;99990.25;;;24.41;52.75
65553;BME280;52465;51.560;14.368;2023-07-20T21:48:57;100006.06;;;24.43;52.97
65553;BME280;52465;51.560;14.368;2023-07-20T22:01:10;100014.84;;;24.38;52.83
65553;BME280;52465;51.560;14.368;2023-07-20T22:16:33;100015.28;;;24.30;52.80
65553;BME280;52465;51.560;14.368;2023-07-20T22:27:07;100015.81;;;24.32;52.77
65553;BME280;52465;51.560;14.368;2023-07-20T22:29:33;99982.44;;;24.08;52.98
65553;BME280;52465;51.560;14.368;2023-07-20T22:31:58;100008.56;;;24.27;53.29
65553;BME280;52465;51.560;14.368;2023-07-20T22:34:26;100019.25;;;24.27;52.95
65553;BME280;52465;51.560;14.368;2023-07-20T22:38:53;100015.22;;;24.25;53.18
65553;BME280;52465;51.560;14.368;2023-07-20T22:48:01;100009.63;;;24.26;53.15
65553;BME280;52465;51.560;14.368;2023-07-20T23:01:38;100008.25;;;24.24;53.06
65553;BME280;52465;51.560;14.368;2023-07-20T23:09:29;100002.34;;;24.22;52.95
65553;BME280;52465;51.560;14.368;2023-07-20T23:11:54;99993.72;;;24.15;53.34
65553;BME280;52465;51.560;14.368;2023-07-20T23:16:32;100005.78;;;24.17;53.09
65553;BME280;52465;51.560;14.368;2023-07-20T23:18:58;100001.50;;;24.16;53.08
65553;BME280;52465;51.560;14.368;2023-07-20T23:21:23;100000.13;;;24.14;53.03
65553;BME280;52465;51.560;14.368;2023-07-20T23:27:02;99995.00;;;24.12;53.26
65553;BME280;52465;51.560;14.368;2023-07-20T23:32:53;99989.88;;;24.06;53.24
65553;BME280;52465;51.560;14.368;2023-07-20T23:35:18;100003.84;;;24.13;53.59
65553;BME280;52465;51.560;14.368;2023-07-20T23:37:44;100003.31;;;24.11;53.47
65553;BME280;52465;51.560;14.368;2023-07-20T23:40:09;99997.16;;;24.10;53.53
65553;BME280;52465;51.560;14.368;2023-07-20T23:45:34;100010.53;;;24.10;53.66
65553;BME280;52465;51.560;14.368;2023-07-20T23:52:03;99975.84;;;23.93;53.53
